Terminal Aerodrome Forecast
Issued by NWS

Home | Current Version | Previous Version | Text Only | Print | Product List | Glossary On
Versions: 1 2 3 4 5 6 7 8 9 10 11 12
000
FTUS42 KTBW 180538
TAFPIE
TAF
KPIE 180538Z 1806/1906 VRB03KT P6SM FEW040 SCT250
     FM180800 VRB03KT 6SM BR FEW040 SCT250
      TEMPO 1809/1813 3SM BR SCT005
     FM181400 14004KT P6SM SCT025 SCT250
     FM181700 VRB05KT P6SM FEW040 SCT250
     FM182000 29006KT P6SM FEW050 SCT250
     FM190100 VRB03KT P6SM SCT250=

USA.gov is the U.S. government's official web portal to all federal, state and local government web resources and services.